sensor_id;sensor_type;location;lat;lon;timestamp;temperature;humidity
70184;DHT22;57554;51.546;6.776;2023-05-23T00:01:41;17.10;67.20
70184;DHT22;57554;51.546;6.776;2023-05-23T00:04:12;17.10;67.10
70184;DHT22;57554;51.546;6.776;2023-05-23T00:06:42;17.10;67.20
70184;DHT22;57554;51.546;6.776;2023-05-23T00:09:14;17.10;67.00
70184;DHT22;57554;51.546;6.776;2023-05-23T00:11:40;17.10;67.00
70184;DHT22;57554;51.546;6.776;2023-05-23T00:14:13;17.10;67.10
70184;DHT22;57554;51.546;6.776;2023-05-23T00:16:40;17.10;67.00
70184;DHT22;57554;51.546;6.776;2023-05-23T00:19:07;17.00;66.90
70184;DHT22;57554;51.546;6.776;2023-05-23T00:21:36;17.00;66.90
70184;DHT22;57554;51.546;6.776;2023-05-23T00:24:02;17.00;66.90
70184;DHT22;57554;51.546;6.776;2023-05-23T00:26:29;17.00;67.00
70184;DHT22;57554;51.546;6.776;2023-05-23T00:28:54;16.90;67.30
70184;DHT22;57554;51.546;6.776;2023-05-23T00:31:21;16.90;67.50
70184;DHT22;57554;51.546;6.776;2023-05-23T00:33:46;16.80;67.80
70184;DHT22;57554;51.546;6.776;2023-05-23T00:36:12;16.80;67.90
70184;DHT22;57554;51.546;6.776;2023-05-23T00:38:40;16.80;67.80
70184;DHT22;57554;51.546;6.776;2023-05-23T00:41:07;16.80;67.60
70184;DHT22;57554;51.546;6.776;2023-05-23T00:43:33;16.80;67.20
70184;DHT22;57554;51.546;6.776;2023-05-23T00:46:04;16.80;67.00
70184;DHT22;57554;51.546;6.776;2023-05-23T00:51:34;16.90;66.90
70184;DHT22;57554;51.546;6.776;2023-05-23T00:54:01;16.90;66.70
70184;DHT22;57554;51.546;6.776;2023-05-23T00:56:33;16.90;66.50
70184;DHT22;57554;51.546;6.776;2023-05-23T00:59:02;16.90;66.40
70184;DHT22;57554;51.546;6.776;2023-05-23T01:01:33;17.00;66.40
70184;DHT22;57554;51.546;6.776;2023-05-23T01:04:17;17.00;66.40
70184;DHT22;57554;51.546;6.776;2023-05-23T01:06:53;17.00;66.50
70184;DHT22;57554;51.546;6.776;2023-05-23T01:09:20;17.00;66.50
70184;DHT22;57554;51.546;6.776;2023-05-23T01:12:02;17.00;66.70
70184;DHT22;57554;51.546;6.776;2023-05-23T01:14:41;16.90;67.00
70184;DHT22;57554;51.546;6.776;2023-05-23T01:17:18;16.90;67.30
70184;DHT22;57554;51.546;6.776;2023-05-23T01:19:58;16.90;67.40
70184;DHT22;57554;51.546;6.776;2023-05-23T01:25:33;16.80;67.60
70184;DHT22;57554;51.546;6.776;2023-05-23T01:28:15;16.80;67.70
70184;DHT22;57554;51.546;6.776;2023-05-23T01:30:56;16.90;67.60
70184;DHT22;57554;51.546;6.776;2023-05-23T01:33:27;16.90;67.60
70184;DHT22;57554;51.546;6.776;2023-05-23T01:36:00;16.90;67.60
70184;DHT22;57554;51.546;6.776;2023-05-23T01:38:33;16.90;67.60
70184;DHT22;57554;51.546;6.776;2023-05-23T01:41:16;16.90;67.60
70184;DHT22;57554;51.546;6.776;2023-05-23T01:44:05;16.90;67.60
70184;DHT22;57554;51.546;6.776;2023-05-23T01:46:45;16.90;67.60
70184;DHT22;57554;51.546;6.776;2023-05-23T01:49:15;16.90;67.70
70184;DHT22;57554;51.546;6.776;2023-05-23T01:51:49;16.80;67.90
70184;DHT22;57554;51.546;6.776;2023-05-23T01:54:16;16.80;68.00
70184;DHT22;57554;51.546;6.776;2023-05-23T01:56:44;16.80;68.10
70184;DHT22;57554;51.546;6.776;2023-05-23T01:59:19;16.70;68.30
70184;DHT22;57554;51.546;6.776;2023-05-23T02:01:48;16.70;68.30
70184;DHT22;57554;51.546;6.776;2023-05-23T02:04:16;16.80;68.40
70184;DHT22;57554;51.546;6.776;2023-05-23T02:06:44;16.70;68.50
70184;DHT22;57554;51.546;6.776;2023-05-23T02:09:11;16.70;68.60
70184;DHT22;57554;51.546;6.776;2023-05-23T02:11:42;16.70;68.60
70184;DHT22;57554;51.546;6.776;2023-05-23T02:14:13;16.70;68.50
70184;DHT22;57554;51.546;6.776;2023-05-23T02:17:02;16.70;68.40
70184;DHT22;57554;51.546;6.776;2023-05-23T02:19:31;16.70;68.40
70184;DHT22;57554;51.546;6.776;2023-05-23T02:22:07;16.80;68.40
70184;DHT22;57554;51.546;6.776;2023-05-23T02:24:32;16.70;68.40
70184;DHT22;57554;51.546;6.776;2023-05-23T02:26:58;16.70;68.30
70184;DHT22;57554;51.546;6.776;2023-05-23T02:29:23;16.70;68.40
70184;DHT22;57554;51.546;6.776;2023-05-23T02:31:49;16.70;68.30
70184;DHT22;57554;51.546;6.776;2023-05-23T02:34:37;16.70;68.10
70184;DHT22;57554;51.546;6.776;2023-05-23T02:37:03;16.70;67.90
70184;DHT22;57554;51.546;6.776;2023-05-23T02:39:33;16.70;67.70
70184;DHT22;57554;51.546;6.776;2023-05-23T02:42:02;16.70;67.70
70184;DHT22;57554;51.546;6.776;2023-05-23T02:44:28;16.70;67.60
70184;DHT22;57554;51.546;6.776;2023-05-23T02:46:57;16.70;67.50
70184;DHT22;57554;51.546;6.776;2023-05-23T02:49:26;16.70;67.40
70184;DHT22;57554;51.546;6.776;2023-05-23T02:52:00;16.80;67.30
70184;DHT22;57554;51.546;6.776;2023-05-23T02:54:34;16.80;67.40
70184;DHT22;57554;51.546;6.776;2023-05-23T02:56:59;16.80;67.40
70184;DHT22;57554;51.546;6.776;2023-05-23T02:59:25;16.80;67.10
70184;DHT22;57554;51.546;6.776;2023-05-23T03:01:58;16.80;66.90
70184;DHT22;57554;51.546;6.776;2023-05-23T03:04:24;16.70;66.90
70184;DHT22;57554;51.546;6.776;2023-05-23T03:06:50;16.70;66.90
70184;DHT22;57554;51.546;6.776;2023-05-23T03:09:21;16.70;67.00
70184;DHT22;57554;51.546;6.776;2023-05-23T03:11:49;16.60;67.00
70184;DHT22;57554;51.546;6.776;2023-05-23T03:14:24;16.60;67.10
70184;DHT22;57554;51.546;6.776;2023-05-23T03:16:53;16.60;67.20
70184;DHT22;57554;51.546;6.776;2023-05-23T03:19:18;16.50;67.30
70184;DHT22;57554;51.546;6.776;2023-05-23T03:21:47;16.50;67.30
70184;DHT22;57554;51.546;6.776;2023-05-23T03:24:14;16.50;67.40
70184;DHT22;57554;51.546;6.776;2023-05-23T03:26:40;16.50;67.50
70184;DHT22;57554;51.546;6.776;2023-05-23T03:29:08;16.60;67.60
70184;DHT22;57554;51.546;6.776;2023-05-23T03:31:41;16.60;67.50
70184;DHT22;57554;51.546;6.776;2023-05-23T03:34:12;16.50;67.60
70184;DHT22;57554;51.546;6.776;2023-05-23T03:36:38;16.50;67.70
70184;DHT22;57554;51.546;6.776;2023-05-23T03:39:07;16.50;67.80
70184;DHT22;57554;51.546;6.776;2023-05-23T03:41:33;16.50;67.90
70184;DHT22;57554;51.546;6.776;2023-05-23T03:44:01;16.40;68.00
70184;DHT22;57554;51.546;6.776;2023-05-23T03:50:09;16.40;68.20
70184;DHT22;57554;51.546;6.776;2023-05-23T03:52:34;16.40;68.20
70184;DHT22;57554;51.546;6.776;2023-05-23T03:55:00;16.40;68.20
70184;DHT22;57554;51.546;6.776;2023-05-23T03:57:26;16.50;68.30
70184;DHT22;57554;51.546;6.776;2023-05-23T03:59:52;16.50;68.40
70184;DHT22;57554;51.546;6.776;2023-05-23T04:02:20;16.50;68.40
70184;DHT22;57554;51.546;6.776;2023-05-23T04:04:46;16.50;68.40
70184;DHT22;57554;51.546;6.776;2023-05-23T04:07:14;16.40;68.50
70184;DHT22;57554;51.546;6.776;2023-05-23T04:09:40;16.40;68.50
70184;DHT22;57554;51.546;6.776;2023-05-23T04:12:06;16.40;68.70
70184;DHT22;57554;51.546;6.776;2023-05-23T04:14:33;16.40;68.80
70184;DHT22;57554;51.546;6.776;2023-05-23T04:16:59;16.40;68.90
70184;DHT22;57554;51.546;6.776;2023-05-23T04:19:25;16.40;69.00
70184;DHT22;57554;51.546;6.776;2023-05-23T04:21:51;16.40;69.00
70184;DHT22;57554;51.546;6.776;2023-05-23T04:24:16;16.40;69.00
70184;DHT22;57554;51.546;6.776;2023-05-23T04:26:42;16.40;69.00
70184;DHT22;57554;51.546;6.776;2023-05-23T04:29:08;16.40;69.00
70184;DHT22;57554;51.546;6.776;2023-05-23T04:31:36;16.40;69.00
70184;DHT22;57554;51.546;6.776;2023-05-23T04:34:02;16.40;68.90
70184;DHT22;57554;51.546;6.776;2023-05-23T04:36:28;16.40;69.10
70184;DHT22;57554;51.546;6.776;2023-05-23T04:38:54;16.30;69.40
70184;DHT22;57554;51.546;6.776;2023-05-23T04:41:20;16.30;69.50
70184;DHT22;57554;51.546;6.776;2023-05-23T04:43:48;16.20;69.60
70184;DHT22;57554;51.546;6.776;2023-05-23T04:46:19;16.20;69.60
70184;DHT22;57554;51.546;6.776;2023-05-23T04:48:54;16.20;69.70
70184;DHT22;57554;51.546;6.776;2023-05-23T04:51:21;16.30;69.70
70184;DHT22;57554;51.546;6.776;2023-05-23T04:53:53;16.20;69.80
70184;DHT22;57554;51.546;6.776;2023-05-23T04:56:33;16.30;69.80
70184;DHT22;57554;51.546;6.776;2023-05-23T05:01:48;16.30;69.70
70184;DHT22;57554;51.546;6.776;2023-05-23T05:04:19;16.30;69.70
70184;DHT22;57554;51.546;6.776;2023-05-23T05:06:48;16.30;69.70
70184;DHT22;57554;51.546;6.776;2023-05-23T05:09:27;16.30;69.70
70184;DHT22;57554;51.546;6.776;2023-05-23T05:11:56;16.40;69.80
70184;DHT22;57554;51.546;6.776;2023-05-23T05:14:27;16.40;69.60
70184;DHT22;57554;51.546;6.776;2023-05-23T05:16:56;16.40;69.50
70184;DHT22;57554;51.546;6.776;2023-05-23T05:19:29;16.40;69.50
70184;DHT22;57554;51.546;6.776;2023-05-23T05:21:58;16.40;69.50
70184;DHT22;57554;51.546;6.776;2023-05-23T05:24:24;16.40;69.50
70184;DHT22;57554;51.546;6.776;2023-05-23T05:27:18;16.40;69.50
70184;DHT22;57554;51.546;6.776;2023-05-23T05:30:04;16.40;69.50
70184;DHT22;57554;51.546;6.776;2023-05-23T05:32:33;16.30;69.50
70184;DHT22;57554;51.546;6.776;2023-05-23T05:35:04;16.40;69.40
70184;DHT22;57554;51.546;6.776;2023-05-23T05:37:32;16.30;69.50
70184;DHT22;57554;51.546;6.776;2023-05-23T05:40:12;16.30;69.40
70184;DHT22;57554;51.546;6.776;2023-05-23T05:42:41;16.30;69.30
70184;DHT22;57554;51.546;6.776;2023-05-23T05:45:10;16.40;69.40
70184;DHT22;57554;51.546;6.776;2023-05-23T05:47:45;16.40;69.30
70184;DHT22;57554;51.546;6.776;2023-05-23T05:57:28;16.40;69.00
70184;DHT22;57554;51.546;6.776;2023-05-23T06:00:13;16.40;68.90
70184;DHT22;57554;51.546;6.776;2023-05-23T06:02:50;16.40;68.90
70184;DHT22;57554;51.546;6.776;2023-05-23T06:05:17;16.40;68.80
70184;DHT22;57554;51.546;6.776;2023-05-23T06:07:47;16.50;68.70
70184;DHT22;57554;51.546;6.776;2023-05-23T06:10:14;16.60;68.60
70184;DHT22;57554;51.546;6.776;2023-05-23T06:12:45;16.60;68.30
70184;DHT22;57554;51.546;6.776;2023-05-23T06:15:17;16.70;68.10
70184;DHT22;57554;51.546;6.776;2023-05-23T06:17:48;16.70;67.90
70184;DHT22;57554;51.546;6.776;2023-05-23T06:20:17;16.80;67.90
70184;DHT22;57554;51.546;6.776;2023-05-23T06:23:01;16.80;67.60
70184;DHT22;57554;51.546;6.776;2023-05-23T06:25:35;16.80;67.50
70184;DHT22;57554;51.546;6.776;2023-05-23T06:28:13;16.90;67.40
70184;DHT22;57554;51.546;6.776;2023-05-23T06:30:51;16.90;67.10
70184;DHT22;57554;51.546;6.776;2023-05-23T06:33:30;16.80;67.10
70184;DHT22;57554;51.546;6.776;2023-05-23T06:36:01;16.80;66.80
70184;DHT22;57554;51.546;6.776;2023-05-23T06:38:41;16.80;66.90
70184;DHT22;57554;51.546;6.776;2023-05-23T06:41:35;16.80;66.50
70184;DHT22;57554;51.546;6.776;2023-05-23T06:44:23;16.70;66.60
70184;DHT22;57554;51.546;6.776;2023-05-23T06:46:54;16.70;66.60
70184;DHT22;57554;51.546;6.776;2023-05-23T06:49:34;16.70;66.60
70184;DHT22;57554;51.546;6.776;2023-05-23T06:52:13;16.70;66.60
70184;DHT22;57554;51.546;6.776;2023-05-23T06:58:11;16.70;66.70
70184;DHT22;57554;51.546;6.776;2023-05-23T07:00:49;16.80;66.70
70184;DHT22;57554;51.546;6.776;2023-05-23T07:03:35;16.90;66.50
70184;DHT22;57554;51.546;6.776;2023-05-23T07:06:33;16.80;66.30
70184;DHT22;57554;51.546;6.776;2023-05-23T07:12:09;16.80;66.10
70184;DHT22;57554;51.546;6.776;2023-05-23T07:17:36;16.80;66.10
70184;DHT22;57554;51.546;6.776;2023-05-23T07:20:05;16.80;65.80
70184;DHT22;57554;51.546;6.776;2023-05-23T07:22:31;16.70;65.70
70184;DHT22;57554;51.546;6.776;2023-05-23T07:24:56;16.70;65.80
70184;DHT22;57554;51.546;6.776;2023-05-23T07:27:22;16.60;65.80
70184;DHT22;57554;51.546;6.776;2023-05-23T07:29:48;16.60;65.80
70184;DHT22;57554;51.546;6.776;2023-05-23T07:32:14;16.60;66.00
70184;DHT22;57554;51.546;6.776;2023-05-23T07:34:39;16.60;66.10
70184;DHT22;57554;51.546;6.776;2023-05-23T07:37:05;16.60;65.90
70184;DHT22;57554;51.546;6.776;2023-05-23T07:39:31;16.60;66.00
70184;DHT22;57554;51.546;6.776;2023-05-23T07:41:59;16.50;65.80
70184;DHT22;57554;51.546;6.776;2023-05-23T07:44:25;16.50;65.80
70184;DHT22;57554;51.546;6.776;2023-05-23T07:46:51;16.40;65.90
70184;DHT22;57554;51.546;6.776;2023-05-23T07:49:17;16.40;66.10
70184;DHT22;57554;51.546;6.776;2023-05-23T07:51:42;16.40;66.10
70184;DHT22;57554;51.546;6.776;2023-05-23T07:54:08;16.30;66.10
70184;DHT22;57554;51.546;6.776;2023-05-23T07:56:33;16.20;66.00
70184;DHT22;57554;51.546;6.776;2023-05-23T07:58:59;16.10;66.20
70184;DHT22;57554;51.546;6.776;2023-05-23T08:01:25;16.00;66.30
70184;DHT22;57554;51.546;6.776;2023-05-23T08:03:51;16.00;66.30
70184;DHT22;57554;51.546;6.776;2023-05-23T08:06:16;15.90;66.60
70184;DHT22;57554;51.546;6.776;2023-05-23T08:08:42;15.90;66.80
70184;DHT22;57554;51.546;6.776;2023-05-23T08:11:08;15.90;66.80
70184;DHT22;57554;51.546;6.776;2023-05-23T08:13:34;15.80;66.80
70184;DHT22;57554;51.546;6.776;2023-05-23T08:16:00;15.80;66.80
70184;DHT22;57554;51.546;6.776;2023-05-23T08:18:25;15.80;66.80
70184;DHT22;57554;51.546;6.776;2023-05-23T08:20:52;15.80;66.80
70184;DHT22;57554;51.546;6.776;2023-05-23T08:23:18;15.70;66.80
70184;DHT22;57554;51.546;6.776;2023-05-23T08:25:43;15.70;66.90
70184;DHT22;57554;51.546;6.776;2023-05-23T08:28:09;15.70;67.00
70184;DHT22;57554;51.546;6.776;2023-05-23T08:30:35;15.70;66.90
70184;DHT22;57554;51.546;6.776;2023-05-23T08:33:07;15.60;66.90
70184;DHT22;57554;51.546;6.776;2023-05-23T08:35:32;15.60;66.90
70184;DHT22;57554;51.546;6.776;2023-05-23T08:38:01;15.50;67.30
70184;DHT22;57554;51.546;6.776;2023-05-23T08:40:29;15.40;67.50
70184;DHT22;57554;51.546;6.776;2023-05-23T08:42:55;15.40;67.80
70184;DHT22;57554;51.546;6.776;2023-05-23T08:45:21;15.30;67.70
70184;DHT22;57554;51.546;6.776;2023-05-23T08:47:48;15.30;67.90
70184;DHT22;57554;51.546;6.776;2023-05-23T08:50:16;15.30;68.00
70184;DHT22;57554;51.546;6.776;2023-05-23T08:52:56;15.30;68.10
70184;DHT22;57554;51.546;6.776;2023-05-23T08:55:31;15.40;67.70
70184;DHT22;57554;51.546;6.776;2023-05-23T08:57:57;15.40;67.60
70184;DHT22;57554;51.546;6.776;2023-05-23T09:00:27;15.40;67.30
70184;DHT22;57554;51.546;6.776;2023-05-23T09:02:54;15.40;67.00
70184;DHT22;57554;51.546;6.776;2023-05-23T09:05:20;15.50;66.70
70184;DHT22;57554;51.546;6.776;2023-05-23T09:07:47;15.50;66.60
70184;DHT22;57554;51.546;6.776;2023-05-23T09:10:14;15.70;66.40
70184;DHT22;57554;51.546;6.776;2023-05-23T09:12:42;15.70;66.10
70184;DHT22;57554;51.546;6.776;2023-05-23T09:15:09;15.80;65.80
70184;DHT22;57554;51.546;6.776;2023-05-23T09:17:35;15.80;65.80
70184;DHT22;57554;51.546;6.776;2023-05-23T09:20:02;15.90;65.70
70184;DHT22;57554;51.546;6.776;2023-05-23T09:22:32;16.00;65.40
70184;DHT22;57554;51.546;6.776;2023-05-23T09:24:59;16.00;65.10
70184;DHT22;57554;51.546;6.776;2023-05-23T09:27:25;16.00;65.00
70184;DHT22;57554;51.546;6.776;2023-05-23T09:29:51;16.10;64.80
70184;DHT22;57554;51.546;6.776;2023-05-23T09:32:18;16.10;64.40
70184;DHT22;57554;51.546;6.776;2023-05-23T09:35:04;16.10;64.10
70184;DHT22;57554;51.546;6.776;2023-05-23T09:37:34;16.10;63.70
70184;DHT22;57554;51.546;6.776;2023-05-23T09:40:02;16.00;63.80
70184;DHT22;57554;51.546;6.776;2023-05-23T09:42:32;16.10;63.80
70184;DHT22;57554;51.546;6.776;2023-05-23T09:44:58;16.10;63.60
70184;DHT22;57554;51.546;6.776;2023-05-23T09:47:24;16.20;63.20
70184;DHT22;57554;51.546;6.776;2023-05-23T09:49:51;16.30;62.90
70184;DHT22;57554;51.546;6.776;2023-05-23T09:52:26;16.50;62.80
70184;DHT22;57554;51.546;6.776;2023-05-23T09:54:53;16.70;62.70
70184;DHT22;57554;51.546;6.776;2023-05-23T09:57:21;17.00;62.00
70184;DHT22;57554;51.546;6.776;2023-05-23T09:59:54;17.30;61.30
70184;DHT22;57554;51.546;6.776;2023-05-23T10:08:12;17.70;59.00
70184;DHT22;57554;51.546;6.776;2023-05-23T10:13:43;18.10;58.60
70184;DHT22;57554;51.546;6.776;2023-05-23T10:20:09;18.50;57.40
70184;DHT22;57554;51.546;6.776;2023-05-23T10:22:27;18.70;56.70
70184;DHT22;57554;51.546;6.776;2023-05-23T10:24:53;18.70;55.40
70184;DHT22;57554;51.546;6.776;2023-05-23T10:27:18;18.70;55.20
70184;DHT22;57554;51.546;6.776;2023-05-23T10:29:46;18.70;55.10
70184;DHT22;57554;51.546;6.776;2023-05-23T10:32:13;18.60;55.00
70184;DHT22;57554;51.546;6.776;2023-05-23T10:37:15;18.60;54.90
70184;DHT22;57554;51.546;6.776;2023-05-23T10:42:54;18.60;54.60
70184;DHT22;57554;51.546;6.776;2023-05-23T10:45:22;18.50;54.50
70184;DHT22;57554;51.546;6.776;2023-05-23T10:47:50;18.50;54.70
70184;DHT22;57554;51.546;6.776;2023-05-23T10:50:35;18.50;54.60
70184;DHT22;57554;51.546;6.776;2023-05-23T10:53:03;18.40;54.50
70184;DHT22;57554;51.546;6.776;2023-05-23T10:55:34;18.40;54.70
70184;DHT22;57554;51.546;6.776;2023-05-23T10:58:18;18.40;54.80
70184;DHT22;57554;51.546;6.776;2023-05-23T11:00:59;18.40;53.80
70184;DHT22;57554;51.546;6.776;2023-05-23T11:09:02;18.70;53.20
70184;DHT22;57554;51.546;6.776;2023-05-23T11:14:13;19.20;53.20
70184;DHT22;57554;51.546;6.776;2023-05-23T11:16:40;19.30;52.70
70184;DHT22;57554;51.546;6.776;2023-05-23T11:21:48;19.20;51.10
70184;DHT22;57554;51.546;6.776;2023-05-23T11:24:15;19.10;51.30
70184;DHT22;57554;51.546;6.776;2023-05-23T11:27:14;19.00;51.70
70184;DHT22;57554;51.546;6.776;2023-05-23T11:29:59;19.00;51.90
70184;DHT22;57554;51.546;6.776;2023-05-23T11:32:30;19.00;52.20
70184;DHT22;57554;51.546;6.776;2023-05-23T11:35:07;19.10;52.30
70184;DHT22;57554;51.546;6.776;2023-05-23T11:37:37;19.20;51.50
70184;DHT22;57554;51.546;6.776;2023-05-23T11:40:29;19.30;51.10
70184;DHT22;57554;51.546;6.776;2023-05-23T11:42:56;19.40;51.20
70184;DHT22;57554;51.546;6.776;2023-05-23T11:45:26;19.60;50.50
70184;DHT22;57554;51.546;6.776;2023-05-23T11:47:54;19.80;50.50
70184;DHT22;57554;51.546;6.776;2023-05-23T11:50:20;20.00;49.70
70184;DHT22;57554;51.546;6.776;2023-05-23T11:52:49;20.10;49.00
70184;DHT22;57554;51.546;6.776;2023-05-23T11:55:21;20.40;49.00
70184;DHT22;57554;51.546;6.776;2023-05-23T11:57:48;20.60;47.90
70184;DHT22;57554;51.546;6.776;2023-05-23T12:00:15;20.60;47.70
70184;DHT22;57554;51.546;6.776;2023-05-23T12:02:42;20.70;47.00
70184;DHT22;57554;51.546;6.776;2023-05-23T12:05:12;20.70;47.60
70184;DHT22;57554;51.546;6.776;2023-05-23T12:07:45;20.90;47.70
70184;DHT22;57554;51.546;6.776;2023-05-23T12:10:15;21.10;47.20
70184;DHT22;57554;51.546;6.776;2023-05-23T12:12:44;21.30;46.30
70184;DHT22;57554;51.546;6.776;2023-05-23T12:15:11;21.50;46.00
70184;DHT22;57554;51.546;6.776;2023-05-23T12:17:37;21.60;45.70
70184;DHT22;57554;51.546;6.776;2023-05-23T12:20:07;21.80;45.60
70184;DHT22;57554;51.546;6.776;2023-05-23T12:22:33;22.00;44.30
70184;DHT22;57554;51.546;6.776;2023-05-23T12:24:59;22.00;44.70
70184;DHT22;57554;51.546;6.776;2023-05-23T12:27:35;22.10;44.10
70184;DHT22;57554;51.546;6.776;2023-05-23T12:30:08;22.20;43.20
70184;DHT22;57554;51.546;6.776;2023-05-23T12:32:41;22.10;42.60
70184;DHT22;57554;51.546;6.776;2023-05-23T12:35:08;22.00;42.00
70184;DHT22;57554;51.546;6.776;2023-05-23T12:37:38;21.90;41.80
70184;DHT22;57554;51.546;6.776;2023-05-23T12:40:15;22.00;42.30
70184;DHT22;57554;51.546;6.776;2023-05-23T12:42:58;22.10;43.20
70184;DHT22;57554;51.546;6.776;2023-05-23T12:45:32;22.40;42.80
70184;DHT22;57554;51.546;6.776;2023-05-23T12:47:58;22.50;41.60
70184;DHT22;57554;51.546;6.776;2023-05-23T12:50:27;22.70;42.90
70184;DHT22;57554;51.546;6.776;2023-05-23T12:52:56;22.90;42.20
70184;DHT22;57554;51.546;6.776;2023-05-23T12:55:22;23.00;39.90
70184;DHT22;57554;51.546;6.776;2023-05-23T12:57:48;23.00;41.00
70184;DHT22;57554;51.546;6.776;2023-05-23T13:00:14;23.00;40.70
70184;DHT22;57554;51.546;6.776;2023-05-23T13:02:39;23.10;40.50
70184;DHT22;57554;51.546;6.776;2023-05-23T13:05:06;23.10;41.20
70184;DHT22;57554;51.546;6.776;2023-05-23T13:07:31;23.10;40.80
70184;DHT22;57554;51.546;6.776;2023-05-23T13:09:57;23.10;40.00
70184;DHT22;57554;51.546;6.776;2023-05-23T13:12:23;23.10;40.10
70184;DHT22;57554;51.546;6.776;2023-05-23T13:14:49;23.00;39.70
70184;DHT22;57554;51.546;6.776;2023-05-23T13:17:15;22.90;39.60
70184;DHT22;57554;51.546;6.776;2023-05-23T13:19:41;22.90;40.20
70184;DHT22;57554;51.546;6.776;2023-05-23T13:22:07;22.90;40.10
70184;DHT22;57554;51.546;6.776;2023-05-23T13:24:43;22.90;39.60
70184;DHT22;57554;51.546;6.776;2023-05-23T13:27:15;23.00;39.50
70184;DHT22;57554;51.546;6.776;2023-05-23T13:29:46;22.80;39.60
70184;DHT22;57554;51.546;6.776;2023-05-23T13:32:24;22.70;39.70
70184;DHT22;57554;51.546;6.776;2023-05-23T13:34:50;22.60;39.80
70184;DHT22;57554;51.546;6.776;2023-05-23T13:37:16;22.50;40.20
70184;DHT22;57554;51.546;6.776;2023-05-23T13:39:41;22.40;40.10
70184;DHT22;57554;51.546;6.776;2023-05-23T13:42:10;22.40;40.20
70184;DHT22;57554;51.546;6.776;2023-05-23T13:44:36;22.40;40.50
70184;DHT22;57554;51.546;6.776;2023-05-23T13:47:12;22.50;40.20
70184;DHT22;57554;51.546;6.776;2023-05-23T13:49:42;22.40;39.80
70184;DHT22;57554;51.546;6.776;2023-05-23T13:52:26;22.30;39.20
70184;DHT22;57554;51.546;6.776;2023-05-23T13:55:04;22.20;39.50
70184;DHT22;57554;51.546;6.776;2023-05-23T14:01:21;21.80;40.20
70184;DHT22;57554;51.546;6.776;2023-05-23T14:03:48;21.80;40.60
70184;DHT22;57554;51.546;6.776;2023-05-23T14:06:19;21.70;40.00
70184;DHT22;57554;51.546;6.776;2023-05-23T14:08:45;21.60;39.60
70184;DHT22;57554;51.546;6.776;2023-05-23T14:11:14;21.60;40.20
70184;DHT22;57554;51.546;6.776;2023-05-23T14:13:49;21.60;40.40
70184;DHT22;57554;51.546;6.776;2023-05-23T14:16:21;21.70;40.30
70184;DHT22;57554;51.546;6.776;2023-05-23T14:18:49;21.90;40.00
70184;DHT22;57554;51.546;6.776;2023-05-23T14:21:21;22.10;40.40
70184;DHT22;57554;51.546;6.776;2023-05-23T14:23:46;22.10;40.20
70184;DHT22;57554;51.546;6.776;2023-05-23T14:26:12;22.10;39.70
70184;DHT22;57554;51.546;6.776;2023-05-23T14:28:38;22.00;40.20
70184;DHT22;57554;51.546;6.776;2023-05-23T14:34:45;21.80;39.90
70184;DHT22;57554;51.546;6.776;2023-05-23T14:37:14;21.70;39.90
70184;DHT22;57554;51.546;6.776;2023-05-23T14:39:40;21.70;39.80
70184;DHT22;57554;51.546;6.776;2023-05-23T14:42:06;21.70;39.50
70184;DHT22;57554;51.546;6.776;2023-05-23T14:44:31;21.60;39.20
70184;DHT22;57554;51.546;6.776;2023-05-23T14:46:57;21.40;39.60
70184;DHT22;57554;51.546;6.776;2023-05-23T14:49:23;21.20;39.40
70184;DHT22;57554;51.546;6.776;2023-05-23T14:51:48;21.10;39.50
70184;DHT22;57554;51.546;6.776;2023-05-23T14:54:14;20.90;39.80
70184;DHT22;57554;51.546;6.776;2023-05-23T14:56:40;20.90;40.10
70184;DHT22;57554;51.546;6.776;2023-05-23T14:59:07;21.00;40.20
70184;DHT22;57554;51.546;6.776;2023-05-23T15:01:33;21.00;40.00
70184;DHT22;57554;51.546;6.776;2023-05-23T15:03:59;20.90;38.80
70184;DHT22;57554;51.546;6.776;2023-05-23T15:06:27;20.70;39.80
70184;DHT22;57554;51.546;6.776;2023-05-23T15:08:53;20.60;39.90
70184;DHT22;57554;51.546;6.776;2023-05-23T15:11:21;20.40;40.20
70184;DHT22;57554;51.546;6.776;2023-05-23T15:13:47;20.30;40.80
70184;DHT22;57554;51.546;6.776;2023-05-23T15:16:12;20.30;40.90
70184;DHT22;57554;51.546;6.776;2023-05-23T15:18:38;20.20;40.90
70184;DHT22;57554;51.546;6.776;2023-05-23T15:21:07;20.20;41.20
70184;DHT22;57554;51.546;6.776;2023-05-23T15:23:33;20.20;41.00
70184;DHT22;57554;51.546;6.776;2023-05-23T15:25:59;20.10;40.80
70184;DHT22;57554;51.546;6.776;2023-05-23T15:28:24;20.00;40.60
70184;DHT22;57554;51.546;6.776;2023-05-23T15:30:50;19.90;40.90
70184;DHT22;57554;51.546;6.776;2023-05-23T15:33:16;19.70;41.00
70184;DHT22;57554;51.546;6.776;2023-05-23T15:35:46;19.70;41.20
70184;DHT22;57554;51.546;6.776;2023-05-23T15:38:11;19.60;41.60
70184;DHT22;57554;51.546;6.776;2023-05-23T15:40:37;19.70;41.60
70184;DHT22;57554;51.546;6.776;2023-05-23T15:43:03;19.80;41.40
70184;DHT22;57554;51.546;6.776;2023-05-23T15:45:29;19.90;41.10
70184;DHT22;57554;51.546;6.776;2023-05-23T15:47:55;20.10;41.00
70184;DHT22;57554;51.546;6.776;2023-05-23T15:50:21;20.20;41.00
70184;DHT22;57554;51.546;6.776;2023-05-23T15:52:56;20.30;40.50
70184;DHT22;57554;51.546;6.776;2023-05-23T15:55:22;20.40;40.40
70184;DHT22;57554;51.546;6.776;2023-05-23T15:57:47;20.40;40.20
70184;DHT22;57554;51.546;6.776;2023-05-23T16:00:13;20.40;40.00
70184;DHT22;57554;51.546;6.776;2023-05-23T16:02:39;20.40;39.90
70184;DHT22;57554;51.546;6.776;2023-05-23T16:05:05;20.40;39.70
70184;DHT22;57554;51.546;6.776;2023-05-23T16:07:31;20.30;39.50
70184;DHT22;57554;51.546;6.776;2023-05-23T16:09:57;20.20;40.00
70184;DHT22;57554;51.546;6.776;2023-05-23T16:12:22;20.10;39.90
70184;DHT22;57554;51.546;6.776;2023-05-23T16:14:51;20.00;39.90
70184;DHT22;57554;51.546;6.776;2023-05-23T16:17:17;20.00;40.40
70184;DHT22;57554;51.546;6.776;2023-05-23T16:19:43;20.00;41.10
70184;DHT22;57554;51.546;6.776;2023-05-23T16:22:08;20.10;40.70
70184;DHT22;57554;51.546;6.776;2023-05-23T16:24:37;20.00;40.60
70184;DHT22;57554;51.546;6.776;2023-05-23T16:27:03;19.90;40.50
70184;DHT22;57554;51.546;6.776;2023-05-23T16:29:29;19.70;40.90
70184;DHT22;57554;51.546;6.776;2023-05-23T16:31:54;19.60;41.50
70184;DHT22;57554;51.546;6.776;2023-05-23T16:34:21;19.50;41.70
70184;DHT22;57554;51.546;6.776;2023-05-23T16:36:47;19.40;42.10
70184;DHT22;57554;51.546;6.776;2023-05-23T16:39:13;19.50;42.10
70184;DHT22;57554;51.546;6.776;2023-05-23T16:41:41;19.50;41.70
70184;DHT22;57554;51.546;6.776;2023-05-23T16:44:09;19.40;41.60
70184;DHT22;57554;51.546;6.776;2023-05-23T16:46:34;19.30;41.50
70184;DHT22;57554;51.546;6.776;2023-05-23T16:49:03;19.20;41.40
70184;DHT22;57554;51.546;6.776;2023-05-23T16:51:29;19.10;41.70